Time;durP1;ratioP1;P1;durP2;ratioP2;P2;SDS_P1;SDS_P2;PMS_P1;PMS_P2;Temp;Humidity;BMP_temperature;BMP_pressure;BME280_temperature;BME280_humidity;BME280_pressure;Samples;Min_cycle;Max_cycle;Signal;HPM_P1;HPM_P2
2023/06/25 00:00:48;;;;;;;4.72;3.90;;;;;27.70;101929.00;;;;5092421;28;20202;-77
2023/06/25 00:03:15;;;;;;;5.00;4.18;;;;;27.70;101923.00;;;;5097885;28;20221;-77
2023/06/25 00:05:43;;;;;;;4.82;3.88;;;;;27.70;101928.00;;;;5089718;28;20198;-77
2023/06/25 00:08:11;;;;;;;4.28;3.88;;;;;27.70;101917.00;;;;5087989;28;20194;-77
2023/06/25 00:10:41;;;;;;;4.95;3.88;;;;;27.60;101923.00;;;;5090886;28;20280;-77
2023/06/25 00:13:08;;;;;;;4.80;4.15;;;;;27.60;101920.00;;;;5089450;28;20550;-77
2023/06/25 00:15:36;;;;;;;4.80;3.88;;;;;27.60;101908.00;;;;5079968;28;20202;-77
2023/06/25 00:18:04;;;;;;;9.65;5.20;;;;;27.60;101914.00;;;;5087514;28;20194;-77
2023/06/25 00:20:32;;;;;;;4.85;3.85;;;;;27.60;101910.00;;;;5089432;28;20200;-77
2023/06/25 00:23:00;;;;;;;5.88;4.78;;;;;27.50;101913.00;;;;5086729;28;20237;-77
2023/06/25 00:25:29;;;;;;;8.05;5.10;;;;;27.50;101912.00;;;;5088634;28;20197;-77
2023/06/25 00:27:57;;;;;;;6.28;5.20;;;;;27.50;101913.00;;;;5085046;28;20198;-76
2023/06/25 00:30:25;;;;;;;5.50;4.60;;;;;27.50;101909.00;;;;5085205;28;20202;-77
2023/06/25 00:32:55;;;;;;;6.30;5.30;;;;;27.50;101904.00;;;;5084972;28;20230;-76
2023/06/25 00:35:26;;;;;;;6.25;4.82;;;;;27.40;101906.00;;;;5085959;28;20255;-76
2023/06/25 00:37:57;;;;;;;8.25;5.95;;;;;27.40;101905.00;;;;5085662;28;20800;-76
2023/06/25 00:40:24;;;;;;;10.95;5.78;;;;;27.40;101902.00;;;;5086691;28;20209;-76
2023/06/25 00:42:58;;;;;;;8.60;5.65;;;;;27.40;101898.00;;;;5088354;28;20237;-76
2023/06/25 00:45:26;;;;;;;8.40;6.47;;;;;27.40;101899.00;;;;5086134;28;20213;-76
2023/06/25 00:47:54;;;;;;;9.23;6.60;;;;;27.30;101895.00;;;;5088092;28;20201;-76
2023/06/25 00:50:22;;;;;;;7.78;5.85;;;;;27.30;101884.00;;;;5088947;28;20209;-77
2023/06/25 00:52:50;;;;;;;8.70;5.60;;;;;27.30;101889.00;;;;5088607;28;20263;-76
2023/06/25 00:55:18;;;;;;;7.95;5.90;;;;;27.30;101887.00;;;;5086901;28;20657;-76
2023/06/25 00:57:46;;;;;;;8.13;5.82;;;;;27.30;101886.00;;;;5088652;28;20198;-76
2023/06/25 01:00:14;;;;;;;7.35;5.47;;;;;27.20;101872.00;;;;5088916;28;20202;-76
2023/06/25 01:02:48;;;;;;;7.38;5.63;;;;;27.20;101873.00;;;;5088243;28;20253;-77
2023/06/25 01:05:23;;;;;;;6.28;5.45;;;;;27.20;101877.00;;;;5073622;28;20206;-77
2023/06/25 01:07:53;;;;;;;8.65;6.20;;;;;27.20;101876.00;;;;5087373;28;20190;-76
2023/06/25 01:10:21;;;;;;;6.40;5.75;;;;;27.20;101873.00;;;;5089712;28;20195;-76
2023/06/25 01:12:48;;;;;;;7.63;5.38;;;;;27.20;101869.00;;;;5087758;28;20580;-77
2023/06/25 01:15:15;;;;;;;8.05;6.18;;;;;27.10;101870.00;;;;5087250;28;20319;-76
2023/06/25 01:17:48;;;;;;;6.93;5.75;;;;;27.10;101870.00;;;;5085780;28;20202;-76
2023/06/25 01:20:16;;;;;;;7.03;5.75;;;;;27.10;101864.00;;;;5085479;28;20640;-76
2023/06/25 01:22:45;;;;;;;7.65;6.00;;;;;27.10;101858.00;;;;5087362;28;20276;-76
2023/06/25 01:25:12;;;;;;;6.95;5.90;;;;;27.10;101854.00;;;;5087315;28;20202;-77
2023/06/25 01:27:39;;;;;;;8.40;6.25;;;;;27.10;101858.00;;;;5086986;28;20210;-76
2023/06/25 01:30:09;;;;;;;8.80;6.07;;;;;27.00;101849.00;;;;5088156;28;20205;-77
2023/06/25 01:32:41;;;;;;;8.85;6.70;;;;;27.00;101857.00;;;;5088761;28;20261;-76
2023/06/25 01:35:09;;;;;;;7.43;5.57;;;;;27.00;101854.00;;;;5085005;28;20201;-76
2023/06/25 01:37:36;;;;;;;7.65;5.88;;;;;27.00;101860.00;;;;5086747;28;20209;-76
2023/06/25 01:40:08;;;;;;;7.93;5.85;;;;;27.00;101860.00;;;;5079664;28;20194;-77
2023/06/25 01:42:35;;;;;;;7.32;5.80;;;;;27.00;101848.00;;;;5088197;28;20271;-76
2023/06/25 01:45:03;;;;;;;11.55;5.72;;;;;27.00;101835.00;;;;5085812;28;20664;-77
2023/06/25 01:47:31;;;;;;;8.68;6.30;;;;;27.00;101842.00;;;;5087133;28;20202;-77
2023/06/25 01:49:58;;;;;;;7.45;5.88;;;;;27.00;101839.00;;;;5088467;28;20194;-77
2023/06/25 01:52:25;;;;;;;7.35;5.72;;;;;27.00;101834.00;;;;5087159;28;20205;-76
2023/06/25 01:54:53;;;;;;;7.68;5.90;;;;;27.00;101823.00;;;;5069699;28;20206;-76
2023/06/25 01:57:21;;;;;;;7.38;6.03;;;;;26.90;101822.00;;;;5072086;28;20202;-77
2023/06/25 01:59:49;;;;;;;7.32;5.53;;;;;26.90;101820.00;;;;5074079;28;20206;-76
2023/06/25 02:02:16;;;;;;;6.43;5.38;;;;;26.90;101828.00;;;;5087687;28;20197;-76
2023/06/25 02:04:44;;;;;;;6.05;5.40;;;;;26.90;101817.00;;;;5088192;28;20582;-77
2023/06/25 02:07:11;;;;;;;10.13;6.15;;;;;26.90;101811.00;;;;5087355;28;20402;-76
2023/06/25 02:09:39;;;;;;;7.57;6.15;;;;;26.90;101813.00;;;;5087969;28;20210;-77
2023/06/25 02:12:07;;;;;;;7.40;5.38;;;;;26.90;101807.00;;;;5085450;28;20259;-77
2023/06/25 02:14:35;;;;;;;7.25;5.53;;;;;26.80;101808.00;;;;5085593;28;20222;-76
2023/06/25 02:17:03;;;;;;;6.32;5.10;;;;;26.90;101806.00;;;;5087354;28;20567;-76
2023/06/25 02:19:30;;;;;;;6.43;5.32;;;;;26.80;101800.00;;;;5091548;28;20198;-76
2023/06/25 02:21:57;;;;;;;6.63;5.38;;;;;26.80;101806.00;;;;5092254;28;20205;-76
2023/06/25 02:24:24;;;;;;;6.55;5.78;;;;;26.80;101808.00;;;;5090761;28;20218;-77
2023/06/25 02:26:52;;;;;;;5.63;4.78;;;;;26.80;101801.00;;;;5085505;28;20428;-76
2023/06/25 02:29:19;;;;;;;6.18;5.20;;;;;26.80;101810.00;;;;5076911;28;20198;-77
2023/06/25 02:31:48;;;;;;;5.75;4.88;;;;;26.70;101797.00;;;;5090927;28;20213;-77
2023/06/25 02:34:16;;;;;;;7.03;4.88;;;;;26.70;101800.00;;;;5091280;28;20209;-78
2023/06/25 02:36:43;;;;;;;7.15;4.97;;;;;26.70;101803.00;;;;5087268;28;20216;-76
2023/06/25 02:39:11;;;;;;;6.40;4.85;;;;;26.70;101795.00;;;;5085645;28;22209;-77
2023/06/25 02:41:38;;;;;;;6.82;5.68;;;;;26.70;101796.00;;;;5089975;28;20187;-76
2023/06/25 02:44:05;;;;;;;8.68;5.47;;;;;26.60;101789.00;;;;5088827;28;20215;-76
2023/06/25 02:46:35;;;;;;;5.95;5.00;;;;;26.60;101788.00;;;;5090055;28;20863;-77
2023/06/25 02:49:04;;;;;;;5.88;4.75;;;;;26.60;101791.00;;;;5091253;28;20199;-77
2023/06/25 02:51:31;;;;;;;5.78;4.78;;;;;26.60;101788.00;;;;5091400;28;20210;-76
2023/06/25 02:53:58;;;;;;;6.18;5.47;;;;;26.50;101787.00;;;;5091656;28;20194;-76
2023/06/25 02:56:26;;;;;;;7.07;5.40;;;;;26.50;101787.00;;;;5090436;28;20208;-77
2023/06/25 02:58:53;;;;;;;6.75;5.85;;;;;26.50;101789.00;;;;5089126;28;20217;-77
2023/06/25 03:01:20;;;;;;;6.18;4.97;;;;;26.50;101776.00;;;;5076887;28;20191;-76
2023/06/25 03:03:48;;;;;;;8.32;5.75;;;;;26.40;101781.00;;;;5083742;28;20260;-76
2023/06/25 03:06:16;;;;;;;6.25;5.22;;;;;26.40;101779.00;;;;5086560;28;20206;-77
2023/06/25 03:08:44;;;;;;;8.68;5.60;;;;;26.40;101780.00;;;;5081206;28;20190;-76
2023/06/25 03:11:11;;;;;;;6.38;5.63;;;;;26.30;101775.00;;;;5091195;28;20213;-76
2023/06/25 03:13:38;;;;;;;8.18;5.78;;;;;26.30;101775.00;;;;5085796;28;20214;-76
2023/06/25 03:16:06;;;;;;;8.05;4.95;;;;;26.30;101771.00;;;;5074715;28;20281;-76
2023/06/25 03:18:33;;;;;;;7.22;5.57;;;;;26.30;101767.00;;;;5080876;28;20205;-76
2023/06/25 03:21:00;;;;;;;6.63;5.60;;;;;26.20;101766.00;;;;5084171;28;20206;-76
2023/06/25 03:23:29;;;;;;;8.30;5.78;;;;;26.20;101772.00;;;;5089452;28;20221;-76
2023/06/25 03:25:56;;;;;;;6.40;5.57;;;;;26.20;101764.00;;;;5090721;28;20195;-76
2023/06/25 03:28:23;;;;;;;7.60;5.97;;;;;26.10;101765.00;;;;5087034;28;20205;-76
2023/06/25 03:30:51;;;;;;;7.72;4.90;;;;;26.10;101764.00;;;;5089518;28;20190;-76
2023/06/25 03:33:18;;;;;;;6.22;5.22;;;;;26.10;101763.00;;;;5080468;28;20228;-76
2023/06/25 03:35:45;;;;;;;10.57;5.40;;;;;26.10;101756.00;;;;5087436;28;20194;-76
2023/06/25 03:38:14;;;;;;;7.60;6.05;;;;;26.00;101755.00;;;;5089231;28;20198;-77
2023/06/25 03:40:42;;;;;;;9.20;6.03;;;;;26.00;101753.00;;;;5091287;28;20201;-76
2023/06/25 03:43:10;;;;;;;5.70;5.10;;;;;26.00;101746.00;;;;5089372;28;20225;-76
2023/06/25 03:45:37;;;;;;;6.45;5.15;;;;;26.00;101748.00;;;;5090113;28;20198;-76
2023/06/25 03:48:05;;;;;;;7.03;5.43;;;;;25.90;101748.00;;;;5089266;28;20194;-76
2023/06/25 03:50:32;;;;;;;7.68;5.47;;;;;25.90;101746.00;;;;5090530;28;20209;-76
2023/06/25 03:53:01;;;;;;;6.53;5.15;;;;;25.90;101750.00;;;;5087745;28;20202;-76
2023/06/25 03:55:28;;;;;;;6.60;5.78;;;;;25.90;101742.00;;;;5083432;28;20264;-77
2023/06/25 03:57:58;;;;;;;5.80;5.15;;;;;25.80;101754.00;;;;5089411;28;20197;-77
2023/06/25 04:00:25;;;;;;;6.22;4.82;;;;;25.80;101753.00;;;;5087488;28;20203;-77
2023/06/25 04:02:52;;;;;;;7.05;5.63;;;;;25.80;101756.00;;;;5083291;28;20206;-77
2023/06/25 04:05:20;;;;;;;5.63;4.65;;;;;25.80;101752.00;;;;5078053;28;20214;-77
2023/06/25 04:07:47;;;;;;;6.68;5.13;;;;;25.80;101742.00;;;;5083223;28;20194;-77
2023/06/25 04:10:15;;;;;;;7.05;5.93;;;;;25.80;101746.00;;;;5087413;28;20209;-77
2023/06/25 04:12:42;;;;;;;6.60;5.35;;;;;25.80;101749.00;;;;5076065;28;20201;-77
2023/06/25 04:15:11;;;;;;;7.18;5.35;;;;;25.80;101750.00;;;;5090894;28;20217;-77
2023/06/25 04:17:39;;;;;;;7.05;5.47;;;;;25.80;101758.00;;;;5085410;28;20206;-77
2023/06/25 04:20:08;;;;;;;6.65;5.43;;;;;25.80;101748.00;;;;5086152;28;20201;-77
2023/06/25 04:22:35;;;;;;;6.55;4.82;;;;;25.80;101743.00;;;;5086721;28;20687;-77
2023/06/25 04:25:03;;;;;;;5.75;4.93;;;;;25.90;101751.00;;;;5088560;28;20217;-77
2023/06/25 04:27:30;;;;;;;6.45;5.07;;;;;25.90;101748.00;;;;5088978;28;20194;-77
2023/06/25 04:29:57;;;;;;;6.30;4.90;;;;;25.90;101744.00;;;;5086912;28;20202;-77
2023/06/25 04:32:26;;;;;;;6.35;5.22;;;;;25.90;101742.00;;;;5086228;28;20778;-76
2023/06/25 04:34:53;;;;;;;5.45;4.80;;;;;25.90;101746.00;;;;5084835;28;20210;-77
2023/06/25 04:37:20;;;;;;;5.80;5.15;;;;;25.90;101745.00;;;;5076084;28;20199;-77
2023/06/25 04:39:48;;;;;;;6.07;5.13;;;;;25.90;101739.00;;;;5081664;28;20195;-77
2023/06/25 04:42:15;;;;;;;5.13;4.45;;;;;26.00;101747.00;;;;5080467;28;20210;-77
2023/06/25 04:44:43;;;;;;;5.93;5.32;;;;;26.00;101743.00;;;;5079584;28;20219;-77
2023/06/25 04:47:10;;;;;;;6.70;5.45;;;;;26.00;101750.00;;;;5078275;28;20198;-77
2023/06/25 04:49:38;;;;;;;7.00;5.18;;;;;26.00;101748.00;;;;5084633;28;20557;-76
2023/06/25 04:52:06;;;;;;;5.63;4.97;;;;;26.10;101739.00;;;;5088609;28;20194;-77
2023/06/25 04:54:33;;;;;;;5.80;5.20;;;;;26.10;101741.00;;;;5088248;28;20213;-76
2023/06/25 04:57:01;;;;;;;6.85;5.30;;;;;26.10;101737.00;;;;5087671;28;20198;-77
2023/06/25 04:59:28;;;;;;;5.45;4.50;;;;;26.20;101737.00;;;;5085784;28;20194;-76
2023/06/25 05:01:55;;;;;;;5.05;4.55;;;;;26.20;101734.00;;;;5086385;28;20190;-76
2023/06/25 05:04:33;;;;;;;5.35;4.60;;;;;26.20;101743.00;;;;5080529;28;20599;-77
2023/06/25 05:07:03;;;;;;;5.93;5.07;;;;;26.30;101747.00;;;;5092020;28;20209;-77
2023/06/25 05:09:30;;;;;;;4.78;4.38;;;;;26.40;101742.00;;;;5085962;28;20198;-77
2023/06/25 05:11:57;;;;;;;4.68;4.18;;;;;26.40;101742.00;;;;5089865;28;20202;-78
2023/06/25 05:14:26;;;;;;;5.57;4.65;;;;;26.50;101744.00;;;;5088268;28;20222;-79
2023/06/25 05:16:53;;;;;;;6.45;5.00;;;;;26.50;101747.00;;;;5085092;28;20203;-76
2023/06/25 05:19:21;;;;;;;5.88;5.28;;;;;26.60;101748.00;;;;5085219;28;20233;-76
2023/06/25 05:21:48;;;;;;;5.88;4.55;;;;;26.70;101743.00;;;;5083671;28;20551;-77
2023/06/25 05:24:17;;;;;;;5.78;5.05;;;;;26.70;101754.00;;;;5086363;28;20230;-77
2023/06/25 05:26:44;;;;;;;6.93;5.03;;;;;26.80;101746.00;;;;5079942;28;20293;-77
2023/06/25 05:29:11;;;;;;;6.72;5.45;;;;;26.90;101743.00;;;;5086969;28;20202;-77
2023/06/25 05:31:38;;;;;;;8.68;5.05;;;;;26.90;101752.00;;;;5088860;28;20194;-77
2023/06/25 05:34:06;;;;;;;6.88;5.35;;;;;27.00;101747.00;;;;5088752;28;20225;-77
2023/06/25 05:36:33;;;;;;;6.63;5.32;;;;;27.00;101742.00;;;;5079696;28;20578;-77
2023/06/25 05:39:00;;;;;;;6.38;5.38;;;;;27.10;101745.00;;;;5084349;28;20236;-77
2023/06/25 05:41:29;;;;;;;7.78;5.82;;;;;27.20;101739.00;;;;5083131;28;20203;-77
2023/06/25 05:43:57;;;;;;;6.55;4.68;;;;;27.20;101736.00;;;;5081196;28;20249;-77
2023/06/25 05:46:25;;;;;;;6.10;4.95;;;;;27.30;101732.00;;;;5087256;28;20198;-78
2023/06/25 05:48:52;;;;;;;6.55;4.85;;;;;27.40;101729.00;;;;5085554;28;20202;-78
2023/06/25 05:51:19;;;;;;;7.88;5.57;;;;;27.50;101729.00;;;;5081178;28;20214;-78
2023/06/25 05:53:47;;;;;;;5.68;4.75;;;;;27.50;101732.00;;;;5077098;28;20199;-76
2023/06/25 05:56:15;;;;;;;5.60;4.78;;;;;27.60;101737.00;;;;5087391;28;20206;-77
2023/06/25 05:58:44;;;;;;;5.72;4.78;;;;;27.70;101730.00;;;;5087364;28;20259;-77
2023/06/25 06:01:11;;;;;;;6.78;4.60;;;;;27.80;101736.00;;;;5088196;28;20947;-77
2023/06/25 06:03:46;;;;;;;5.55;4.35;;;;;27.80;101741.00;;;;5087244;28;20231;-77
2023/06/25 06:06:25;;;;;;;5.03;4.22;;;;;27.90;101733.00;;;;5074257;28;20578;-78
2023/06/25 06:08:52;;;;;;;6.47;4.82;;;;;28.00;101732.00;;;;5086280;28;20248;-78
2023/06/25 06:11:19;;;;;;;5.90;4.70;;;;;28.10;101730.00;;;;5083095;28;20202;-77
2023/06/25 06:13:48;;;;;;;4.55;4.10;;;;;28.10;101734.00;;;;5081531;28;20225;-79
2023/06/25 06:16:15;;;;;;;5.88;4.43;;;;;28.20;101730.00;;;;5085775;28;21073;-78
2023/06/25 06:18:43;;;;;;;5.20;4.28;;;;;28.30;101735.00;;;;5086310;28;20199;-78
2023/06/25 06:21:10;;;;;;;5.63;4.55;;;;;28.30;101736.00;;;;5085986;28;20202;-78
2023/06/25 06:23:37;;;;;;;6.57;4.28;;;;;28.40;101744.00;;;;5086709;28;20202;-77
2023/06/25 06:26:05;;;;;;;4.75;4.07;;;;;28.50;101733.00;;;;5085142;28;20201;-77
2023/06/25 06:28:32;;;;;;;6.63;5.07;;;;;28.50;101727.00;;;;5084842;28;20213;-78
2023/06/25 06:31:01;;;;;;;4.68;4.00;;;;;28.60;101728.00;;;;5085779;28;20568;-78
2023/06/25 06:33:28;;;;;;;7.00;5.35;;;;;28.70;101735.00;;;;5085867;28;20708;-78
2023/06/25 06:35:55;;;;;;;6.63;4.40;;;;;28.80;101726.00;;;;5082460;28;20199;-78
2023/06/25 06:38:22;;;;;;;6.03;4.85;;;;;28.80;101724.00;;;;5087908;28;20214;-77
2023/06/25 06:40:52;;;;;;;7.70;4.97;;;;;28.90;101729.00;;;;5088117;28;20190;-78
2023/06/25 06:43:19;;;;;;;6.97;5.18;;;;;29.00;101727.00;;;;5088048;28;20205;-78
2023/06/25 06:45:47;;;;;;;5.60;4.40;;;;;29.00;101726.00;;;;5083053;28;20218;-77
2023/06/25 06:48:16;;;;;;;7.55;5.32;;;;;29.10;101718.00;;;;5087473;28;20202;-78
2023/06/25 06:50:44;;;;;;;7.60;5.38;;;;;29.20;101723.00;;;;5087786;28;20205;-77
2023/06/25 06:53:11;;;;;;;6.72;5.32;;;;;29.20;101720.00;;;;5085566;28;20199;-78
2023/06/25 06:55:38;;;;;;;6.07;4.55;;;;;29.30;101717.00;;;;5087476;28;20231;-79
2023/06/25 06:58:05;;;;;;;6.68;4.47;;;;;29.40;101721.00;;;;5084732;28;20195;-79
2023/06/25 07:00:33;;;;;;;10.07;5.18;;;;;29.40;101719.00;;;;5086414;28;20190;-79
2023/06/25 07:03:00;;;;;;;7.10;5.07;;;;;29.50;101723.00;;;;5081656;28;20198;-80
2023/06/25 07:05:29;;;;;;;7.28;5.38;;;;;29.60;101723.00;;;;5084385;28;20237;-80
2023/06/25 07:07:56;;;;;;;8.07;5.55;;;;;29.70;101719.00;;;;5087041;28;20194;-80
2023/06/25 07:10:23;;;;;;;11.95;5.00;;;;;29.80;101726.00;;;;5090691;28;20719;-80
2023/06/25 07:12:51;;;;;;;6.22;4.88;;;;;29.80;101720.00;;;;5088068;28;20635;-80
2023/06/25 07:15:18;;;;;;;6.22;4.15;;;;;29.90;101719.00;;;;5090134;28;20676;-80
2023/06/25 07:17:45;;;;;;;7.20;5.20;;;;;30.00;101716.00;;;;5090316;28;20769;-81
2023/06/25 07:20:13;;;;;;;6.13;4.43;;;;;30.10;101720.00;;;;5088390;28;20198;-81
2023/06/25 07:22:43;;;;;;;5.55;4.35;;;;;30.10;101718.00;;;;5090862;28;20205;-78
2023/06/25 07:25:11;;;;;;;7.40;5.30;;;;;30.20;101722.00;;;;5090360;28;20230;-80
2023/06/25 07:27:38;;;;;;;7.47;4.88;;;;;30.30;101718.00;;;;5090423;28;20298;-79
2023/06/25 07:30:07;;;;;;;8.10;5.07;;;;;30.40;101709.00;;;;5090146;28;20198;-79
2023/06/25 07:32:34;;;;;;;5.47;4.50;;;;;30.50;101713.00;;;;5089786;28;20226;-81
2023/06/25 07:35:01;;;;;;;5.47;4.65;;;;;30.60;101712.00;;;;5091419;28;20293;-79
2023/06/25 07:37:29;;;;;;;5.82;4.28;;;;;30.70;101711.00;;;;5080156;28;20201;-78
2023/06/25 07:39:57;;;;;;;6.30;4.82;;;;;30.80;101706.00;;;;5091203;28;20198;-79
2023/06/25 07:42:25;;;;;;;6.65;4.95;;;;;30.90;101709.00;;;;5090440;28;20209;-78
2023/06/25 07:44:52;;;;;;;5.28;4.50;;;;;31.00;101703.00;;;;5087676;28;20221;-78
2023/06/25 07:47:19;;;;;;;6.60;4.97;;;;;31.10;101709.00;;;;5090895;28;20206;-78
2023/06/25 07:49:46;;;;;;;5.22;4.68;;;;;31.20;101705.00;;;;5083818;28;20221;-78
2023/06/25 07:52:14;;;;;;;6.47;4.85;;;;;31.30;101705.00;;;;5090857;28;20691;-78
2023/06/25 07:54:41;;;;;;;5.30;4.32;;;;;31.30;101704.00;;;;5088649;28;20205;-78
2023/06/25 07:57:10;;;;;;;5.80;4.82;;;;;31.40;101701.00;;;;5089307;28;20202;-79
2023/06/25 07:59:37;;;;;;;6.47;4.40;;;;;31.50;101699.00;;;;5090311;28;20201;-78
2023/06/25 08:02:05;;;;;;;6.72;4.22;;;;;31.60;101700.00;;;;5089392;28;20197;-78
2023/06/25 08:04:32;;;;;;;6.28;4.53;;;;;31.60;101695.00;;;;5090545;28;20221;-78
2023/06/25 08:06:59;;;;;;;5.25;4.22;;;;;31.70;101698.00;;;;5089845;28;20194;-78
2023/06/25 08:09:27;;;;;;;5.15;4.22;;;;;31.80;101696.00;;;;5090535;28;20189;-78
2023/06/25 08:11:54;;;;;;;4.82;3.60;;;;;31.90;101688.00;;;;5072346;28;20218;-78
2023/06/25 08:14:23;;;;;;;5.85;4.15;;;;;31.90;101686.00;;;;5087881;28;20217;-78
2023/06/25 08:16:50;;;;;;;5.85;3.95;;;;;32.00;101684.00;;;;5090272;28;20194;-78
2023/06/25 08:19:17;;;;;;;5.18;3.75;;;;;32.00;101682.00;;;;5089636;28;20204;-79
2023/06/25 08:21:45;;;;;;;4.72;3.45;;;;;32.10;101687.00;;;;5082933;28;20197;-78
2023/06/25 08:24:12;;;;;;;5.20;4.28;;;;;32.20;101680.00;;;;5090549;28;20205;-78
2023/06/25 08:26:39;;;;;;;5.55;4.05;;;;;32.30;101680.00;;;;5089857;28;20194;-78
2023/06/25 08:29:06;;;;;;;4.90;3.83;;;;;32.30;101680.00;;;;5089298;28;20668;-78
2023/06/25 08:31:35;;;;;;;5.35;4.60;;;;;32.40;101685.00;;;;5087342;28;20201;-78
2023/06/25 08:34:02;;;;;;;4.53;3.95;;;;;32.50;101677.00;;;;5089654;28;20193;-78
2023/06/25 08:36:30;;;;;;;3.95;3.25;;;;;32.60;101673.00;;;;5089915;28;20217;-78
2023/06/25 08:38:57;;;;;;;8.75;4.40;;;;;32.70;101675.00;;;;5090032;28;20193;-78
2023/06/25 08:41:26;;;;;;;6.95;4.80;;;;;32.70;101676.00;;;;5089644;28;20197;-78
2023/06/25 08:43:54;;;;;;;6.00;4.28;;;;;32.80;101673.00;;;;5086467;28;20194;-78
2023/06/25 08:46:22;;;;;;;5.38;4.03;;;;;33.00;101671.00;;;;5069038;28;20226;-79
2023/06/25 08:48:55;;;;;;;3.67;3.30;;;;;33.00;101675.00;;;;5071863;28;20201;-77
2023/06/25 08:51:24;;;;;;;3.42;2.97;;;;;33.10;101673.00;;;;5085367;28;20209;-79
2023/06/25 08:53:52;;;;;;;4.55;2.97;;;;;33.30;101679.00;;;;5089410;28;20198;-80
2023/06/25 08:56:19;;;;;;;3.30;3.00;;;;;33.30;101671.00;;;;5089386;28;20190;-79
2023/06/25 08:58:47;;;;;;;5.80;3.58;;;;;33.40;101668.00;;;;5088185;28;21071;-79
2023/06/25 09:01:14;;;;;;;4.90;3.75;;;;;33.50;101664.00;;;;5085133;28;20210;-80
2023/06/25 09:03:42;;;;;;;4.30;3.67;;;;;33.60;101663.00;;;;5068809;28;20200;-81
2023/06/25 09:06:15;;;;;;;4.47;3.67;;;;;33.70;101668.00;;;;5081377;28;20226;-79
2023/06/25 09:08:43;;;;;;;3.95;3.10;;;;;33.80;101668.00;;;;5086313;28;20197;-81
2023/06/25 09:11:12;;;;;;;4.38;3.30;;;;;33.90;101669.00;;;;5087638;28;20205;-80
2023/06/25 09:13:40;;;;;;;4.05;3.38;;;;;34.00;101660.00;;;;5086566;28;20687;-80
2023/06/25 09:16:09;;;;;;;5.78;3.58;;;;;34.10;101661.00;;;;5077169;28;20186;-84
2023/06/25 09:18:37;;;;;;;4.05;3.53;;;;;34.30;101656.00;;;;5085581;28;20190;-80
2023/06/25 09:21:05;;;;;;;7.45;3.67;;;;;34.30;101660.00;;;;5088152;28;20206;-80
2023/06/25 09:23:35;;;;;;;6.00;4.03;;;;;34.40;101661.00;;;;5089218;28;20200;-81
2023/06/25 09:26:06;;;;;;;4.43;3.38;;;;;34.50;101660.00;;;;5084881;28;20686;-81
2023/06/25 09:28:34;;;;;;;3.90;3.38;;;;;34.60;101651.00;;;;5080034;28;20194;-81
2023/06/25 09:31:01;;;;;;;3.63;3.13;;;;;34.80;101650.00;;;;5078670;28;20198;-81
2023/06/25 09:33:33;;;;;;;4.28;3.67;;;;;34.80;101650.00;;;;5081668;28;20310;-81
2023/06/25 09:36:03;;;;;;;5.95;3.30;;;;;34.90;101652.00;;;;5082546;28;20543;-79
2023/06/25 09:38:30;;;;;;;4.65;3.50;;;;;35.00;101644.00;;;;5086769;28;20206;-80
2023/06/25 09:41:00;;;;;;;4.47;3.53;;;;;35.10;101641.00;;;;5087230;28;20197;-82
2023/06/25 09:43:27;;;;;;;4.45;3.53;;;;;35.20;101641.00;;;;5080157;28;20204;-80
2023/06/25 09:45:55;;;;;;;4.88;2.95;;;;;35.30;101645.00;;;;5081489;28;20699;-79
2023/06/25 09:48:24;;;;;;;6.95;4.78;;;;;35.30;101647.00;;;;5084872;28;20208;-79
2023/06/25 09:50:55;;;;;;;7.32;4.32;;;;;35.40;101634.00;;;;5087295;28;20202;-80
2023/06/25 09:53:26;;;;;;;3.65;3.25;;;;;35.50;101636.00;;;;5082535;28;20198;-79
2023/06/25 09:55:54;;;;;;;4.25;3.55;;;;;35.60;101639.00;;;;5085164;28;20205;-79
2023/06/25 09:58:24;;;;;;;4.97;4.00;;;;;35.70;101641.00;;;;5087082;28;20197;-79
2023/06/25 10:00:51;;;;;;;3.42;3.08;;;;;35.80;101639.00;;;;5088068;28;20197;-79
2023/06/25 10:03:20;;;;;;;4.65;3.90;;;;;35.80;101639.00;;;;5086843;28;20194;-79
2023/06/25 10:05:49;;;;;;;4.25;3.35;;;;;35.80;101639.00;;;;5084992;28;20221;-81
2023/06/25 10:08:18;;;;;;;4.93;3.92;;;;;35.90;101636.00;;;;5081778;28;20411;-80
2023/06/25 10:10:57;;;;;;;4.50;3.55;;;;;35.80;101633.00;;;;5087853;28;20204;-83
2023/06/25 10:13:26;;;;;;;6.18;4.18;;;;;36.00;101626.00;;;;5086929;28;20620;-84
2023/06/25 10:15:58;;;;;;;4.32;3.80;;;;;36.00;101624.00;;;;5085173;28;20564;-84
2023/06/25 10:18:26;;;;;;;4.43;3.95;;;;;36.10;101627.00;;;;5086666;28;20201;-82
2023/06/25 10:20:57;;;;;;;5.13;4.05;;;;;36.10;101615.00;;;;5088456;28;20198;-84
2023/06/25 10:23:26;;;;;;;4.10;3.35;;;;;36.20;101625.00;;;;5086740;28;20302;-83
2023/06/25 10:25:55;;;;;;;3.53;3.00;;;;;36.30;101621.00;;;;5083408;28;20220;-86
2023/06/25 10:28:31;;;;;;;3.58;3.05;;;;;36.30;101617.00;;;;5086552;28;20580;-83
2023/06/25 10:30:59;;;;;;;4.45;3.63;;;;;36.40;101622.00;;;;5085394;28;20203;-83
2023/06/25 10:33:29;;;;;;;4.20;3.55;;;;;36.50;101620.00;;;;5085409;28;20221;-81
2023/06/25 10:35:58;;;;;;;4.90;3.53;;;;;36.50;101606.00;;;;5086887;28;20194;-82
2023/06/25 10:38:26;;;;;;;4.53;3.13;;;;;36.50;101613.00;;;;5089649;28;20202;-82
2023/06/25 10:40:54;;;;;;;4.28;3.40;;;;;36.50;101606.00;;;;5090198;28;20189;-83
2023/06/25 10:43:22;;;;;;;4.20;3.33;;;;;36.50;101613.00;;;;5086605;28;20576;-82
2023/06/25 10:45:51;;;;;;;3.90;3.13;;;;;36.50;101607.00;;;;5072297;28;20243;-82
2023/06/25 10:48:19;;;;;;;3.90;3.13;;;;;36.60;101607.00;;;;5089017;28;20213;-79
2023/06/25 10:50:47;;;;;;;4.30;3.67;;;;;36.60;101604.00;;;;5087391;28;20198;-83
2023/06/25 10:53:16;;;;;;;4.07;3.22;;;;;36.60;101600.00;;;;5087023;28;20206;-82
2023/06/25 10:55:45;;;;;;;3.80;3.38;;;;;36.60;101597.00;;;;5086812;28;20202;-82
2023/06/25 10:58:16;;;;;;;3.65;3.15;;;;;36.60;101586.00;;;;5086562;28;20570;-81
2023/06/25 11:00:44;;;;;;;3.20;2.88;;;;;36.70;101592.00;;;;5079786;28;20198;-84
2023/06/25 11:03:13;;;;;;;3.40;3.10;;;;;36.70;101589.00;;;;5083892;28;20204;-80
2023/06/25 11:05:42;;;;;;;3.60;3.17;;;;;36.70;101588.00;;;;5088783;28;20600;-81
2023/06/25 11:08:09;;;;;;;4.38;2.83;;;;;36.60;101584.00;;;;5091559;28;20205;-81
2023/06/25 11:10:38;;;;;;;3.88;3.47;;;;;36.60;101582.00;;;;5090593;28;20585;-81
2023/06/25 11:13:09;;;;;;;4.47;3.35;;;;;36.60;101586.00;;;;5091218;28;20517;-80
2023/06/25 11:15:36;;;;;;;3.20;2.88;;;;;36.60;101577.00;;;;5089266;28;20240;-81
2023/06/25 11:18:04;;;;;;;3.13;2.20;;;;;36.70;101575.00;;;;5079237;28;20606;-81
2023/06/25 11:20:33;;;;;;;2.88;2.65;;;;;36.70;101577.00;;;;5070816;28;20199;-80
2023/06/25 11:23:01;;;;;;;3.97;3.10;;;;;36.70;101571.00;;;;5079868;28;20216;-80
2023/06/25 11:25:29;;;;;;;3.80;3.15;;;;;36.70;101563.00;;;;5089142;28;20232;-81
2023/06/25 11:28:07;;;;;;;3.65;2.60;;;;;36.60;101563.00;;;;5090739;28;20197;-81
2023/06/25 11:30:35;;;;;;;3.30;2.70;;;;;36.70;101560.00;;;;5088607;28;20201;-81
2023/06/25 11:33:10;;;;;;;4.00;3.10;;;;;36.70;101558.00;;;;5086626;28;20579;-81
2023/06/25 11:35:39;;;;;;;3.88;3.22;;;;;36.70;101553.00;;;;5072981;28;20398;-80
2023/06/25 11:38:07;;;;;;;4.53;3.40;;;;;36.80;101552.00;;;;5070412;28;20664;-81
2023/06/25 11:40:36;;;;;;;4.47;3.13;;;;;36.80;101556.00;;;;5070603;28;20203;-80
2023/06/25 11:43:04;;;;;;;2.67;2.47;;;;;36.80;101555.00;;;;5083500;28;20194;-80
2023/06/25 11:45:41;;;;;;;3.03;2.65;;;;;36.70;101553.00;;;;5089893;28;20213;-80
2023/06/25 11:48:14;;;;;;;4.18;2.92;;;;;36.80;101557.00;;;;5090017;28;20244;-80
2023/06/25 11:50:43;;;;;;;3.25;2.95;;;;;36.80;101547.00;;;;5090127;28;20564;-80
2023/06/25 11:53:11;;;;;;;2.60;2.38;;;;;36.90;101540.00;;;;5088928;28;20197;-81
2023/06/25 11:55:39;;;;;;;4.10;3.10;;;;;36.90;101539.00;;;;5088101;28;20197;-80
2023/06/25 11:58:06;;;;;;;5.57;3.53;;;;;36.90;101538.00;;;;5089891;28;20205;-80
2023/06/25 12:00:33;;;;;;;3.60;3.15;;;;;36.90;101537.00;;;;5090328;28;20189;-80
2023/06/25 12:03:01;;;;;;;3.50;3.20;;;;;36.90;101539.00;;;;5088732;28;20200;-80
2023/06/25 12:05:28;;;;;;;5.07;3.10;;;;;36.90;101529.00;;;;5089068;28;20201;-80
2023/06/25 12:07:57;;;;;;;3.70;2.97;;;;;36.90;101535.00;;;;5090405;28;20189;-81
2023/06/25 12:10:24;;;;;;;3.45;3.15;;;;;36.90;101533.00;;;;5090202;28;20190;-80
2023/06/25 12:12:52;;;;;;;4.47;2.92;;;;;36.90;101519.00;;;;5089546;28;20197;-80